createdAt,value
2023-04-15T00:00:31.287Z,11.04
2023-04-15T00:02:33.014Z,11.01
2023-04-15T00:04:34.720Z,11.17
2023-04-15T00:06:37.453Z,11.04
2023-04-15T00:08:39.270Z,11.15
2023-04-15T00:10:40.910Z,11.14
2023-04-15T00:12:42.293Z,11.13
2023-04-15T00:14:43.769Z,10.95
2023-04-15T00:16:45.374Z,11.10
2023-04-15T00:18:46.883Z,11.24
2023-04-15T00:20:48.487Z,11.13
2023-04-15T00:22:50.039Z,10.87
2023-04-15T00:24:55.055Z,11.03
2023-04-15T00:26:56.844Z,11.10
2023-04-15T00:28:58.685Z,10.82
2023-04-15T00:31:00.278Z,11.02
2023-04-15T00:33:02.001Z,10.95
2023-04-15T00:35:03.666Z,11.07
2023-04-15T00:37:05.102Z,10.92
2023-04-15T00:39:06.852Z,10.84
2023-04-15T00:41:09.488Z,10.86
2023-04-15T00:43:10.896Z,11.15
2023-04-15T00:45:12.583Z,11.10
2023-04-15T00:47:15.244Z,11.16
2023-04-15T00:49:16.750Z,11.15
2023-04-15T00:51:18.319Z,11.23
2023-04-15T00:53:19.759Z,11.14
2023-04-15T00:55:21.240Z,11.16
2023-04-15T00:57:22.750Z,11.25
2023-04-15T00:59:24.196Z,11.50
2023-04-15T01:01:26.575Z,11.36
2023-04-15T01:03:29.885Z,11.24
2023-04-15T01:05:32.352Z,11.10
2023-04-15T01:07:33.792Z,11.18
2023-04-15T01:09:35.796Z,11.33
2023-04-15T01:11:37.520Z,11.31
2023-04-15T01:13:39.171Z,11.14
2023-04-15T01:15:40.867Z,11.11
2023-04-15T01:17:42.636Z,11.09
2023-04-15T01:19:44.102Z,11.11
2023-04-15T01:21:45.654Z,11.07
2023-04-15T01:23:47.874Z,11.27
2023-04-15T01:25:50.206Z,11.26
2023-04-15T01:27:51.760Z,11.37
2023-04-15T01:29:53.194Z,11.21
2023-04-15T01:31:56.248Z,11.23
2023-04-15T01:33:58.647Z,11.24
2023-04-15T01:36:00.174Z,11.30
2023-04-15T01:38:11.746Z,11.42
2023-04-15T01:40:13.228Z,11.40
2023-04-15T01:42:14.789Z,11.71
2023-04-15T01:44:16.509Z,11.61
2023-04-15T01:46:18.067Z,11.63
2023-04-15T01:48:19.740Z,11.61
2023-04-15T01:50:21.365Z,11.49
2023-04-15T01:52:22.760Z,11.58
2023-04-15T01:54:24.178Z,11.66
2023-04-15T01:56:25.664Z,11.50
2023-04-15T01:58:27.144Z,11.62
2023-04-15T02:00:28.888Z,11.53
2023-04-15T02:02:30.400Z,11.50
2023-04-15T02:04:32.224Z,11.43
2023-04-15T02:06:33.652Z,11.48
2023-04-15T02:08:35.131Z,11.43
2023-04-15T02:10:36.630Z,11.45
2023-04-15T02:12:38.043Z,11.44
2023-04-15T02:14:39.577Z,11.22
2023-04-15T02:16:41.253Z,11.21
2023-04-15T02:18:43.846Z,11.38
2023-04-15T02:20:45.233Z,11.54
2023-04-15T02:22:47.099Z,11.38
2023-04-15T02:24:48.758Z,11.47
2023-04-15T02:26:50.162Z,11.28
2023-04-15T02:28:51.590Z,11.37
2023-04-15T02:30:53.458Z,11.50
2023-04-15T02:32:55.095Z,11.20
2023-04-15T02:34:56.603Z,11.23
2023-04-15T02:36:58.011Z,11.28
2023-04-15T02:38:59.676Z,11.25
2023-04-15T02:41:01.262Z,11.39
2023-04-15T02:43:03.744Z,11.45
2023-04-15T02:45:06.244Z,11.17
2023-04-15T02:47:07.874Z,11.01
2023-04-15T02:49:09.293Z,10.97
2023-04-15T02:51:14.950Z,11.18
2023-04-15T02:53:16.379Z,11.07
2023-04-15T02:55:18.788Z,10.92
2023-04-15T02:57:20.170Z,11.01
2023-04-15T02:59:22.165Z,10.96
2023-04-15T03:01:23.787Z,10.77
2023-04-15T03:03:25.257Z,10.77
2023-04-15T03:05:26.957Z,10.82
2023-04-15T03:07:28.712Z,10.89
2023-04-15T03:09:30.099Z,10.90
2023-04-15T03:11:33.616Z,10.99
2023-04-15T03:13:36.035Z,10.74
2023-04-15T03:15:37.465Z,10.81
2023-04-15T03:17:39.059Z,10.81
2023-04-15T03:19:40.783Z,10.42
2023-04-15T03:21:42.182Z,10.65
2023-04-15T03:23:43.594Z,10.48
2023-04-15T03:25:45.361Z,10.72
2023-04-15T03:27:46.978Z,10.99
2023-04-15T03:29:48.394Z,10.95
2023-04-15T03:31:50.016Z,10.77
2023-04-15T03:33:51.417Z,10.66
2023-04-15T03:35:53.326Z,10.71
2023-04-15T03:37:55.072Z,10.70
2023-04-15T03:39:56.467Z,10.67
2023-04-15T03:41:58.888Z,10.76
2023-04-15T03:44:00.625Z,10.51
2023-04-15T03:46:02.307Z,10.58
2023-04-15T03:48:16.510Z,10.62
2023-04-15T03:50:18.845Z,10.72
2023-04-15T03:52:20.246Z,10.44
2023-04-15T03:54:21.632Z,10.56
2023-04-15T03:56:23.515Z,10.54
2023-04-15T03:58:24.951Z,10.48
2023-04-15T04:00:26.397Z,10.47
2023-04-15T04:02:28.383Z,10.48
2023-04-15T04:04:30.217Z,10.74
2023-04-15T04:06:31.763Z,10.89
2023-04-15T04:08:33.659Z,10.58
2023-04-15T04:10:35.083Z,10.58
2023-04-15T04:12:36.500Z,10.60
2023-04-15T04:14:38.251Z,10.55
2023-04-15T04:16:39.718Z,10.67
2023-04-15T04:18:41.155Z,10.82
2023-04-15T04:20:42.789Z,10.73
2023-04-15T04:22:44.268Z,10.69
2023-04-15T04:24:45.701Z,10.61
2023-04-15T04:26:47.260Z,10.42
2023-04-15T04:28:48.670Z,10.32
2023-04-15T04:30:50.260Z,10.33
2023-04-15T04:32:52.011Z,10.36
2023-04-15T04:34:53.935Z,10.25
2023-04-15T04:36:55.460Z,10.14
2023-04-15T04:38:57.009Z,10.24
2023-04-15T04:40:58.495Z,10.16
2023-04-15T04:43:00.295Z,10.38
2023-04-15T04:45:02.059Z,10.40
2023-04-15T04:47:03.546Z,10.49
2023-04-15T04:49:05.135Z,10.49
2023-04-15T04:51:07.309Z,10.39
2023-04-15T04:53:08.753Z,10.40
2023-04-15T04:55:10.297Z,10.27
2023-04-15T04:57:11.832Z,10.39
2023-04-15T04:59:13.259Z,10.37
2023-04-15T05:01:14.996Z,10.26
2023-04-15T05:03:16.942Z,10.41
2023-04-15T05:05:18.695Z,10.42
2023-04-15T05:07:20.242Z,10.34
2023-04-15T05:09:21.790Z,10.19
2023-04-15T05:11:23.190Z,10.35
2023-04-15T05:13:24.615Z,10.41
2023-04-15T05:15:26.723Z,10.56
2023-04-15T05:17:28.160Z,10.52
2023-04-15T05:19:29.574Z,10.50
2023-04-15T05:21:31.414Z,10.42
2023-04-15T05:23:32.892Z,10.43
2023-04-15T05:25:34.342Z,10.56
2023-04-15T05:27:35.992Z,10.55
2023-04-15T05:29:37.392Z,10.59
2023-04-15T05:31:38.960Z,10.63
2023-04-15T05:33:40.697Z,10.47
2023-04-15T05:35:42.115Z,10.55
2023-04-15T05:37:43.684Z,10.52
2023-04-15T05:39:45.386Z,10.43
2023-04-15T05:41:46.801Z,10.53
2023-04-15T05:43:48.275Z,10.50
2023-04-15T05:45:49.914Z,10.58
2023-04-15T05:47:51.342Z,10.58
2023-04-15T05:49:52.768Z,10.62
2023-04-15T05:51:54.370Z,10.60
2023-04-15T05:53:55.810Z,10.54
2023-04-15T05:55:57.230Z,10.51
2023-04-15T05:57:58.805Z,10.65
2023-04-15T06:00:00.232Z,10.86
2023-04-15T06:02:01.662Z,10.90
2023-04-15T06:04:03.414Z,10.54
2023-04-15T06:06:04.972Z,10.52
2023-04-15T06:08:06.460Z,10.72
2023-04-15T06:10:08.446Z,10.80
2023-04-15T06:12:09.878Z,10.95
2023-04-15T06:14:11.269Z,10.72
2023-04-15T06:16:12.994Z,10.60
2023-04-15T06:18:14.381Z,10.63
2023-04-15T06:20:15.871Z,10.83
2023-04-15T06:22:17.530Z,10.79
2023-04-15T06:24:18.978Z,10.62
2023-04-15T06:26:20.372Z,10.42
2023-04-15T06:28:22.118Z,10.75
2023-04-15T06:30:24.492Z,10.76
2023-04-15T06:32:26.560Z,10.63
2023-04-15T06:34:28.263Z,10.77
2023-04-15T06:36:29.688Z,10.91
2023-04-15T06:38:31.148Z,10.69
2023-04-15T06:40:32.862Z,10.66
2023-04-15T06:42:35.113Z,10.55
2023-04-15T06:44:36.821Z,10.60
2023-04-15T06:46:38.533Z,10.66
2023-04-15T06:48:39.976Z,10.46
2023-04-15T06:50:41.431Z,10.87
2023-04-15T06:52:43.541Z,10.71
2023-04-15T06:54:44.965Z,10.76
2023-04-15T06:56:46.346Z,10.56
2023-04-15T06:58:48.085Z,10.62
2023-04-15T07:00:49.741Z,10.71
2023-04-15T07:02:51.366Z,10.84
2023-04-15T07:04:52.948Z,10.69
2023-04-15T07:06:54.585Z,10.69
2023-04-15T07:08:56.027Z,10.68
2023-04-15T07:10:57.657Z,10.77
2023-04-15T07:12:59.076Z,10.70
2023-04-15T07:15:00.578Z,10.82
2023-04-15T07:17:02.368Z,10.98
2023-04-15T07:19:04.139Z,10.82
2023-04-15T07:21:05.891Z,11.05
2023-04-15T07:23:07.537Z,11.00
2023-04-15T07:25:09.203Z,11.00
2023-04-15T07:27:10.676Z,10.98
2023-04-15T07:29:12.451Z,10.99
2023-04-15T07:31:13.971Z,11.07
2023-04-15T07:33:15.415Z,10.78
2023-04-15T07:35:17.022Z,10.71
2023-04-15T07:37:18.439Z,10.66
2023-04-15T07:39:19.854Z,10.77
2023-04-15T07:41:21.717Z,10.67
2023-04-15T07:43:23.149Z,10.85
2023-04-15T07:45:24.662Z,10.94
2023-04-15T07:47:26.188Z,10.71
2023-04-15T07:49:27.608Z,10.86
2023-04-15T07:51:29.077Z,10.91
2023-04-15T07:53:30.529Z,10.83
2023-04-15T07:55:31.905Z,10.88
2023-04-15T07:57:33.315Z,10.67
2023-04-15T07:59:34.823Z,10.77
2023-04-15T08:01:36.547Z,10.72
2023-04-15T08:03:38.218Z,10.90
2023-04-15T08:05:39.723Z,10.98
2023-04-15T08:07:41.379Z,10.96
2023-04-15T08:09:42.772Z,11.06
2023-04-15T08:11:45.419Z,10.86
2023-04-15T08:13:48.254Z,10.99
2023-04-15T08:16:13.220Z,10.90
2023-04-15T08:18:14.859Z,10.94
2023-04-15T08:20:16.386Z,11.11
2023-04-15T08:22:18.496Z,10.92
2023-04-15T08:24:20.870Z,10.97
2023-04-15T08:26:22.768Z,10.99
2023-04-15T08:28:24.224Z,11.13
2023-04-15T08:30:25.767Z,11.15
2023-04-15T08:32:27.205Z,10.81
2023-04-15T08:34:29.564Z,10.65
2023-04-15T08:36:31.335Z,10.78
2023-04-15T08:38:33.044Z,10.93
2023-04-15T08:40:45.469Z,10.87
2023-04-15T08:42:52.996Z,10.81
2023-04-15T08:44:55.378Z,10.61
2023-04-15T08:46:57.161Z,10.74
2023-04-15T08:48:58.940Z,10.91
2023-04-15T08:51:01.204Z,11.07
2023-04-15T08:53:02.744Z,11.09
2023-04-15T08:55:04.590Z,11.22
2023-04-15T08:57:06.433Z,10.92
2023-04-15T08:59:08.778Z,10.82
2023-04-15T09:01:12.023Z,11.07
2023-04-15T09:03:13.965Z,10.83
2023-04-15T09:05:15.495Z,11.20
2023-04-15T09:07:17.129Z,11.09
2023-04-15T09:09:18.633Z,11.16
2023-04-15T09:11:22.094Z,10.89
2023-04-15T09:13:23.496Z,11.04
2023-04-15T09:15:26.338Z,11.02
2023-04-15T09:17:27.827Z,10.88
2023-04-15T09:19:29.875Z,11.22
2023-04-15T09:21:31.968Z,11.27
2023-04-15T09:23:33.379Z,11.11
2023-04-15T09:25:35.215Z,11.15
2023-04-15T09:27:36.859Z,11.15
2023-04-15T09:29:38.417Z,11.10
2023-04-15T09:31:40.975Z,11.08
2023-04-15T09:33:55.483Z,11.26
2023-04-15T09:36:01.991Z,11.28
2023-04-15T09:38:04.982Z,11.09
2023-04-15T09:40:06.942Z,11.16
2023-04-15T09:42:08.411Z,11.36
2023-04-15T09:44:26.434Z,11.50
2023-04-15T09:46:44.423Z,11.44
2023-04-15T09:48:46.145Z,11.09
2023-04-15T09:50:51.120Z,11.14
2023-04-15T09:52:52.554Z,11.19
2023-04-15T09:54:57.034Z,11.16
2023-04-15T09:57:05.454Z,11.03
2023-04-15T09:59:07.437Z,11.09
2023-04-15T10:01:08.878Z,11.03
2023-04-15T10:03:10.906Z,10.89
2023-04-15T10:05:15.414Z,11.07
2023-04-15T10:07:18.152Z,11.00
2023-04-15T10:09:19.982Z,11.46
2023-04-15T10:11:22.243Z,11.48
2023-04-15T10:13:25.516Z,11.31
2023-04-15T10:15:28.984Z,11.59
2023-04-15T10:17:32.484Z,11.58
2023-04-15T10:19:37.074Z,11.22
2023-04-15T10:21:39.285Z,11.10
2023-04-15T10:23:41.163Z,11.07
2023-04-15T10:25:42.941Z,11.21
2023-04-15T10:27:45.198Z,11.42
2023-04-15T10:29:48.676Z,11.40
2023-04-15T10:31:50.666Z,11.52
2023-04-15T10:33:52.965Z,11.43
2023-04-15T10:35:55.904Z,11.35
2023-04-15T10:37:57.376Z,11.41
2023-04-15T10:39:58.868Z,11.18
2023-04-15T10:42:10.519Z,11.60
2023-04-15T10:44:11.992Z,11.52
2023-04-15T10:46:13.664Z,11.38
2023-04-15T10:48:16.310Z,11.64
2023-04-15T10:50:19.146Z,11.66
2023-04-15T10:52:28.827Z,11.58
2023-04-15T10:54:30.210Z,11.57
2023-04-15T10:56:32.203Z,11.85
2023-04-15T10:58:43.665Z,11.43
2023-04-15T11:00:51.190Z,11.17
2023-04-15T11:02:57.067Z,11.41
2023-04-15T11:04:58.916Z,11.35
2023-04-15T11:07:07.231Z,11.44
2023-04-15T11:09:08.625Z,11.64
2023-04-15T11:11:10.228Z,11.58
2023-04-15T11:13:11.560Z,11.61
2023-04-15T11:15:27.923Z,11.59
2023-04-15T11:17:29.636Z,11.41
2023-04-15T11:19:38.646Z,11.50
2023-04-15T11:21:40.131Z,11.54
2023-04-15T11:23:43.444Z,11.61
2023-04-15T11:25:45.404Z,11.51
2023-04-15T11:27:46.795Z,11.57
2023-04-15T11:29:48.268Z,11.55
2023-04-15T11:31:49.762Z,11.39
2023-04-15T11:34:00.382Z,11.30
2023-04-15T11:36:01.957Z,11.58
2023-04-15T11:38:09.504Z,11.70
2023-04-15T11:40:11.476Z,11.44
2023-04-15T11:42:18.872Z,11.51
2023-04-15T11:44:20.284Z,11.79
2023-04-15T11:46:22.008Z,11.75
2023-04-15T11:48:26.546Z,11.75
2023-04-15T11:50:27.923Z,11.85
2023-04-15T11:52:29.368Z,11.79
2023-04-15T11:54:30.965Z,11.80
2023-04-15T11:56:32.396Z,11.78
2023-04-15T11:58:35.668Z,11.52
2023-04-15T12:00:38.344Z,11.76
2023-04-15T12:02:39.892Z,11.83
2023-04-15T12:04:41.448Z,12.04
2023-04-15T12:06:43.286Z,12.16
2023-04-15T12:08:59.640Z,12.11
2023-04-15T12:11:01.084Z,12.18
2023-04-15T12:13:06.957Z,11.91
2023-04-15T12:15:09.846Z,12.02
2023-04-15T12:17:11.269Z,11.84
2023-04-15T12:19:14.475Z,12.12
2023-04-15T12:21:15.898Z,12.01
2023-04-15T12:23:19.993Z,12.00
2023-04-15T12:25:34.452Z,11.82
2023-04-15T12:27:35.894Z,12.00
2023-04-15T12:29:38.683Z,11.99
2023-04-15T12:31:52.873Z,11.74
2023-04-15T12:33:58.851Z,11.76
2023-04-15T12:36:00.340Z,11.72
2023-04-15T12:38:01.952Z,11.65
2023-04-15T12:40:03.534Z,11.95
2023-04-15T12:42:05.498Z,11.83
2023-04-15T12:44:07.493Z,12.11
2023-04-15T12:46:08.954Z,11.85
2023-04-15T12:48:10.414Z,11.85
2023-04-15T12:50:12.004Z,11.87
2023-04-15T12:52:13.438Z,11.74
2023-04-15T12:54:14.826Z,11.95
2023-04-15T12:56:16.645Z,12.00
2023-04-15T12:58:18.025Z,12.00
2023-04-15T13:00:19.487Z,11.87
2023-04-15T13:02:21.039Z,12.16
2023-04-15T13:04:22.844Z,12.02
2023-04-15T13:06:24.452Z,12.27
2023-04-15T13:08:25.861Z,12.19
2023-04-15T13:10:27.263Z,12.21
2023-04-15T13:12:28.689Z,12.14
2023-04-15T13:14:30.893Z,12.21
2023-04-15T13:16:33.394Z,12.20
2023-04-15T13:18:34.851Z,11.81
2023-04-15T13:20:36.281Z,11.87
2023-04-15T13:22:37.755Z,11.90
2023-04-15T13:24:39.164Z,11.69
2023-04-15T13:26:40.880Z,12.04
2023-04-15T13:28:42.374Z,12.01
2023-04-15T13:30:43.827Z,11.75
2023-04-15T13:32:45.559Z,11.69
2023-04-15T13:34:47.019Z,11.69
2023-04-15T13:36:48.449Z,12.17
2023-04-15T13:38:51.443Z,12.22
2023-04-15T13:40:53.156Z,12.37
2023-04-15T13:42:54.608Z,12.29
2023-04-15T13:44:56.367Z,12.55
2023-04-15T13:46:57.872Z,12.62
2023-04-15T13:48:59.647Z,12.61
2023-04-15T13:51:01.377Z,12.47
2023-04-15T13:53:02.817Z,12.46
2023-04-15T13:55:18.239Z,12.53
2023-04-15T13:57:24.033Z,12.70
2023-04-15T13:59:25.511Z,12.61
2023-04-15T14:01:26.947Z,12.92
2023-04-15T14:03:28.801Z,12.76
2023-04-15T14:05:30.499Z,12.61
2023-04-15T14:07:32.001Z,13.03
2023-04-15T14:09:35.362Z,12.93
2023-04-15T14:11:38.830Z,12.71
2023-04-15T14:13:40.245Z,12.87
2023-04-15T14:15:41.960Z,13.03
2023-04-15T14:17:43.475Z,13.27
2023-04-15T14:19:44.969Z,13.05
2023-04-15T14:21:46.714Z,12.93
2023-04-15T14:23:48.101Z,13.01
2023-04-15T14:25:50.694Z,12.97
2023-04-15T14:27:52.408Z,12.53
2023-04-15T14:29:53.842Z,12.98
2023-04-15T14:32:04.062Z,12.94
2023-04-15T14:34:13.724Z,13.07
2023-04-15T14:36:15.144Z,12.81
2023-04-15T14:38:16.635Z,12.85
2023-04-15T14:40:19.619Z,12.50
2023-04-15T14:42:21.009Z,12.50
2023-04-15T14:44:22.469Z,12.26
2023-04-15T14:46:23.969Z,12.23
2023-04-15T14:48:25.749Z,12.29
2023-04-15T14:50:27.175Z,12.13
2023-04-15T14:52:28.748Z,11.97
2023-04-15T14:54:30.180Z,12.22
2023-04-15T14:56:31.698Z,12.20
2023-04-15T14:58:33.307Z,12.11
2023-04-15T15:00:35.257Z,12.31
2023-04-15T15:02:40.550Z,12.15
2023-04-15T15:04:42.316Z,12.14
2023-04-15T15:06:43.781Z,12.06
2023-04-15T15:08:46.256Z,11.92
2023-04-15T15:10:49.315Z,11.85
2023-04-15T15:12:51.170Z,12.03
2023-04-15T15:14:52.588Z,12.08
2023-04-15T15:16:54.187Z,12.14
2023-04-15T15:18:55.648Z,12.19
2023-04-15T15:20:57.050Z,12.28
2023-04-15T15:22:58.660Z,12.21
2023-04-15T15:25:00.035Z,12.16
2023-04-15T15:27:02.183Z,12.28
2023-04-15T15:29:03.920Z,11.94
2023-04-15T15:31:06.037Z,11.63
2023-04-15T15:33:07.608Z,11.75
2023-04-15T15:35:09.832Z,11.79
2023-04-15T15:37:11.654Z,11.70
2023-04-15T15:39:13.111Z,11.52
2023-04-15T15:41:14.693Z,11.57
2023-04-15T15:43:16.298Z,11.57
2023-04-15T15:45:17.822Z,11.50
2023-04-15T15:47:21.397Z,11.47
2023-04-15T15:49:22.848Z,11.44
2023-04-15T15:51:24.301Z,11.40
2023-04-15T15:53:25.911Z,11.41
2023-04-15T15:55:27.460Z,11.51
2023-04-15T15:57:28.868Z,11.62
2023-04-15T15:59:30.519Z,11.64
2023-04-15T16:01:31.902Z,11.71
2023-04-15T16:03:33.452Z,11.71
2023-04-15T16:05:35.674Z,11.81
2023-04-15T16:07:37.167Z,11.70
2023-04-15T16:09:38.677Z,12.01
2023-04-15T16:11:40.389Z,12.12
2023-04-15T16:13:41.991Z,11.99
2023-04-15T16:15:43.397Z,12.06
2023-04-15T16:17:45.001Z,11.96
2023-04-15T16:20:00.233Z,11.99
2023-04-15T16:22:02.921Z,12.06
2023-04-15T16:24:04.396Z,12.07
2023-04-15T16:26:05.914Z,12.05
2023-04-15T16:28:18.650Z,11.55
2023-04-15T16:30:26.975Z,11.54
2023-04-15T16:32:28.446Z,11.84
2023-04-15T16:34:29.851Z,11.78
2023-04-15T16:36:31.541Z,11.77
2023-04-15T16:38:32.996Z,11.47
2023-04-15T16:40:34.466Z,11.76
2023-04-15T16:42:36.089Z,11.70
2023-04-15T16:44:37.530Z,11.56
2023-04-15T16:46:40.831Z,11.68
2023-04-15T16:48:42.524Z,11.63
2023-04-15T16:50:43.950Z,11.37
2023-04-15T16:52:45.390Z,11.17
2023-04-15T16:54:46.977Z,11.31
2023-04-15T16:56:48.406Z,11.18
2023-04-15T16:58:50.426Z,11.33
2023-04-15T17:00:52.417Z,11.24
2023-04-15T17:02:55.365Z,11.36
2023-04-15T17:04:56.875Z,11.40
2023-04-15T17:06:58.317Z,11.61
2023-04-15T17:08:59.744Z,11.63
2023-04-15T17:11:01.164Z,11.53
2023-04-15T17:13:02.867Z,11.34
2023-04-15T17:15:04.709Z,11.53
2023-04-15T17:17:06.285Z,11.53
2023-04-15T17:19:08.089Z,11.78
2023-04-15T17:21:09.520Z,11.72
2023-04-15T17:23:10.925Z,11.52
2023-04-15T17:25:13.916Z,11.49
2023-04-15T17:27:15.377Z,11.37
2023-04-15T17:29:16.889Z,11.14
2023-04-15T17:31:19.861Z,11.10
2023-04-15T17:33:56.517Z,11.21
2023-04-15T17:35:42.768Z,11.39
2023-04-15T17:37:46.114Z,11.49
2023-04-15T17:39:47.565Z,11.39
2023-04-15T17:41:48.972Z,11.48
2023-04-15T17:43:50.991Z,11.22
2023-04-15T17:45:52.429Z,11.19
2023-04-15T17:47:53.884Z,10.89
2023-04-15T17:49:55.999Z,10.91
2023-04-15T17:51:57.497Z,10.90
2023-04-15T17:53:58.999Z,11.17
2023-04-15T17:56:00.720Z,11.00
2023-04-15T17:58:02.150Z,11.22
2023-04-15T18:00:03.998Z,11.19
2023-04-15T18:02:05.713Z,10.93
2023-04-15T18:04:07.644Z,10.90
2023-04-15T18:06:11.440Z,10.77
2023-04-15T18:08:13.262Z,10.93
2023-04-15T18:10:14.725Z,11.05
2023-04-15T18:12:16.393Z,11.06
2023-04-15T18:14:33.077Z,11.13
2023-04-15T18:16:35.537Z,11.13
2023-04-15T18:18:36.991Z,11.15
2023-04-15T18:20:38.581Z,11.03
2023-04-15T18:22:40.050Z,11.16
2023-04-15T18:24:41.657Z,11.16
2023-04-15T18:26:43.341Z,10.84
2023-04-15T18:28:44.852Z,11.03
2023-04-15T18:30:46.242Z,10.99
2023-04-15T18:32:47.775Z,11.04
2023-04-15T18:34:49.197Z,11.00
2023-04-15T18:36:50.610Z,10.95
2023-04-15T18:38:52.463Z,10.77
2023-04-15T18:40:53.854Z,10.88
2023-04-15T18:42:55.370Z,10.72
2023-04-15T18:44:57.074Z,10.87
2023-04-15T18:46:58.524Z,10.82
2023-04-15T18:48:59.949Z,10.66
2023-04-15T18:51:01.688Z,10.90
2023-04-15T18:53:03.069Z,10.97
2023-04-15T18:55:04.899Z,10.99
2023-04-15T18:57:06.432Z,10.78
2023-04-15T18:59:08.081Z,10.91
2023-04-15T19:01:28.473Z,10.95
2023-04-15T19:03:30.169Z,10.92
2023-04-15T19:05:31.658Z,10.89
2023-04-15T19:07:33.194Z,10.91
2023-04-15T19:09:35.250Z,10.70
2023-04-15T19:11:36.642Z,10.75
2023-04-15T19:13:38.076Z,10.74
2023-04-15T19:15:39.646Z,10.63
2023-04-15T19:17:41.204Z,10.37
2023-04-15T19:19:42.664Z,10.71
2023-04-15T19:21:44.382Z,10.63
2023-04-15T19:23:45.823Z,10.62
2023-04-15T19:25:47.266Z,10.55
2023-04-15T19:27:48.991Z,10.54
2023-04-15T19:29:50.416Z,10.43
2023-04-15T19:31:51.814Z,10.49
2023-04-15T19:33:53.303Z,10.45
2023-04-15T19:35:54.729Z,10.29
2023-04-15T19:37:56.204Z,10.18
2023-04-15T19:39:57.816Z,10.18
2023-04-15T19:41:59.313Z,10.30
2023-04-15T19:44:00.735Z,10.16
2023-04-15T19:46:02.477Z,10.16
2023-04-15T19:48:04.640Z,10.18
2023-04-15T19:50:06.640Z,10.20
2023-04-15T19:52:08.335Z,10.00
2023-04-15T19:54:09.811Z,10.02
2023-04-15T19:56:11.235Z,10.05
2023-04-15T19:58:12.902Z,9.98
2023-04-15T20:00:14.414Z,10.11
2023-04-15T20:02:15.938Z,10.08
2023-04-15T20:04:17.569Z,9.98
2023-04-15T20:06:19.233Z,9.92
2023-04-15T20:08:20.623Z,9.92
2023-04-15T20:10:22.923Z,9.63
2023-04-15T20:12:50.509Z,9.87
2023-04-15T20:14:45.865Z,9.91
2023-04-15T20:16:47.349Z,9.87
2023-04-15T20:18:48.817Z,9.90
2023-04-15T20:20:50.246Z,9.87
2023-04-15T20:22:51.757Z,9.71
2023-04-15T20:24:53.231Z,9.86
2023-04-15T20:26:54.681Z,9.93
2023-04-15T20:28:56.745Z,9.98
2023-04-15T20:30:58.944Z,9.94
2023-04-15T20:33:00.476Z,9.91
2023-04-15T20:35:03.170Z,10.05
2023-04-15T20:37:04.782Z,9.76
2023-04-15T20:39:06.290Z,9.91
2023-04-15T20:41:08.004Z,10.05
2023-04-15T20:43:09.621Z,10.06
2023-04-15T20:45:11.300Z,10.00
2023-04-15T20:47:13.373Z,9.92
2023-04-15T20:49:14.956Z,10.16
2023-04-15T20:51:16.396Z,9.88
2023-04-15T20:53:18.014Z,9.84
2023-04-15T20:55:19.610Z,9.96
2023-04-15T20:57:21.040Z,9.79
2023-04-15T20:59:22.608Z,9.98
2023-04-15T21:01:24.276Z,10.04
2023-04-15T21:03:25.810Z,10.13
2023-04-15T21:05:27.518Z,10.06
2023-04-15T21:07:29.070Z,9.92
2023-04-15T21:09:30.496Z,10.10
2023-04-15T21:11:53.226Z,10.06
2023-04-15T21:13:54.124Z,9.84
2023-04-15T21:15:55.583Z,9.79
2023-04-15T21:17:57.227Z,10.01
2023-04-15T21:19:59.114Z,9.85
2023-04-15T21:22:00.561Z,9.98
2023-04-15T21:24:02.239Z,10.14
2023-04-15T21:26:03.736Z,9.94
2023-04-15T21:28:05.222Z,9.99
2023-04-15T21:30:07.445Z,9.99
2023-04-15T21:32:09.041Z,9.90
2023-04-15T21:34:10.506Z,10.10
2023-04-15T21:36:11.985Z,9.85
2023-04-15T21:38:13.904Z,9.92
2023-04-15T21:40:15.538Z,9.96
2023-04-15T21:42:17.170Z,9.81
2023-04-15T21:44:18.746Z,9.91
2023-04-15T21:46:22.563Z,10.03
2023-04-15T21:48:26.284Z,9.96
2023-04-15T21:50:27.726Z,10.10
2023-04-15T21:52:29.176Z,9.96
2023-04-15T21:54:30.833Z,10.19
2023-04-15T21:56:32.778Z,10.17
2023-04-15T21:58:35.042Z,10.05
2023-04-15T22:00:36.636Z,10.05
2023-04-15T22:02:38.201Z,9.95
2023-04-15T22:04:39.791Z,10.12
2023-04-15T22:06:41.275Z,10.04
2023-04-15T22:08:55.193Z,10.04
2023-04-15T22:10:58.064Z,10.17
2023-04-15T22:12:59.679Z,10.24
2023-04-15T22:15:01.529Z,10.10
2023-04-15T22:17:03.142Z,10.15
2023-04-15T22:19:04.924Z,10.11
2023-04-15T22:21:06.544Z,10.04
2023-04-15T22:23:08.188Z,10.00
2023-04-15T22:25:10.036Z,10.10
2023-04-15T22:27:11.484Z,10.02
2023-04-15T22:29:13.017Z,9.97
2023-04-15T22:31:14.634Z,10.18
2023-04-15T22:33:16.141Z,10.25
2023-04-15T22:35:17.714Z,10.18
2023-04-15T22:37:19.328Z,10.15
2023-04-15T22:39:20.849Z,10.12
2023-04-15T22:41:22.270Z,10.39
2023-04-15T22:43:23.914Z,10.05
2023-04-15T22:45:25.467Z,9.92
2023-04-15T22:47:26.981Z,9.84
2023-04-15T22:49:28.459Z,9.74
2023-04-15T22:51:30.126Z,9.70
2023-04-15T22:53:31.911Z,9.84
2023-04-15T22:55:33.550Z,9.86
2023-04-15T22:57:35.059Z,9.70
2023-04-15T22:59:36.513Z,9.55
2023-04-15T23:01:38.340Z,9.89
2023-04-15T23:03:56.347Z,9.91
2023-04-15T23:05:59.189Z,9.76
2023-04-15T23:08:00.729Z,9.95
2023-04-15T23:10:02.218Z,9.95
2023-04-15T23:12:04.101Z,9.80
2023-04-15T23:14:05.856Z,9.87
2023-04-15T23:16:07.561Z,9.62
2023-04-15T23:18:09.167Z,9.73
2023-04-15T23:20:11.499Z,9.77
2023-04-15T23:22:12.964Z,9.87
2023-04-15T23:24:15.180Z,9.92
2023-04-15T23:26:16.900Z,9.72
2023-04-15T23:28:18.432Z,9.75
2023-04-15T23:30:19.871Z,9.71
2023-04-15T23:32:21.458Z,9.70
2023-04-15T23:34:22.960Z,9.76
2023-04-15T23:36:24.437Z,9.59
2023-04-15T23:38:25.973Z,9.61
2023-04-15T23:40:27.420Z,9.72
2023-04-15T23:42:28.868Z,9.79
2023-04-15T23:44:30.375Z,9.59
2023-04-15T23:46:32.107Z,9.52
2023-04-15T23:48:33.623Z,9.54
2023-04-15T23:50:35.198Z,9.60
2023-04-15T23:52:36.863Z,9.59
2023-04-15T23:54:38.365Z,9.66
2023-04-15T23:56:39.806Z,9.66
2023-04-15T23:58:41.244Z,9.88
